createdAt,value
2023-03-07T00:00:38.728Z,1.18
2023-03-07T00:03:08.676Z,1.11
2023-03-07T00:05:37.072Z,1.13
2023-03-07T00:08:06.341Z,0.91
2023-03-07T00:10:34.912Z,1.02
2023-03-07T00:13:04.081Z,0.85
2023-03-07T00:15:32.611Z,0.64
2023-03-07T00:18:01.112Z,0.51
2023-03-07T00:20:31.150Z,1.08
2023-03-07T00:22:59.578Z,0.88
2023-03-07T00:25:28.010Z,0.92
2023-03-07T00:27:56.437Z,0.90
2023-03-07T00:30:25.284Z,0.92
2023-03-07T00:32:53.677Z,0.51
2023-03-07T00:35:22.062Z,1.01
2023-03-07T00:37:51.885Z,0.89
2023-03-07T00:40:20.364Z,0.77
2023-03-07T00:42:48.712Z,0.61
2023-03-07T00:45:17.244Z,0.73
2023-03-07T00:47:45.798Z,0.77
2023-03-07T00:50:14.611Z,0.39
2023-03-07T00:52:43.057Z,0.43
2023-03-07T00:55:13.133Z,0.68
2023-03-07T00:57:42.025Z,0.83
2023-03-07T01:00:12.604Z,0.84
2023-03-07T01:02:40.927Z,0.76
2023-03-07T01:05:10.712Z,0.79
2023-03-07T01:07:39.112Z,0.89
2023-03-07T01:10:08.806Z,0.65
2023-03-07T01:12:39.101Z,0.97
2023-03-07T01:15:08.989Z,1.13
2023-03-07T01:17:38.501Z,1.10
2023-03-07T01:20:09.820Z,1.15
2023-03-07T01:22:38.206Z,1.19
2023-03-07T01:25:08.955Z,1.08
2023-03-07T01:27:38.728Z,1.17
2023-03-07T01:30:09.191Z,1.16
2023-03-07T01:32:39.707Z,1.21
2023-03-07T01:35:09.438Z,1.23
2023-03-07T01:37:38.244Z,1.12
2023-03-07T01:40:10.028Z,1.39
2023-03-07T01:42:39.817Z,1.38
2023-03-07T01:45:43.583Z,1.52
2023-03-07T01:48:12.060Z,1.09
2023-03-07T01:50:41.578Z,1.34
2023-03-07T01:53:10.797Z,1.17
2023-03-07T01:55:39.585Z,1.13
2023-03-07T01:58:16.467Z,1.17
2023-03-07T02:00:47.390Z,1.12
2023-03-07T02:03:23.448Z,1.18
2023-03-07T02:05:57.685Z,1.17
2023-03-07T02:08:29.828Z,1.33
2023-03-07T02:10:58.493Z,1.05
2023-03-07T02:13:28.323Z,1.44
2023-03-07T02:15:57.990Z,1.51
2023-03-07T02:18:29.869Z,1.32
2023-03-07T02:21:09.292Z,0.99
2023-03-07T02:23:47.044Z,1.50
2023-03-07T02:26:23.023Z,1.43
2023-03-07T02:28:53.740Z,1.64
2023-03-07T02:31:22.433Z,1.43
2023-03-07T02:33:50.853Z,1.05
2023-03-07T02:36:24.798Z,1.46
2023-03-07T02:39:07.676Z,0.74
2023-03-07T02:41:39.123Z,1.19
2023-03-07T02:44:15.742Z,1.09
2023-03-07T02:46:44.241Z,1.04
2023-03-07T02:49:12.748Z,0.81
2023-03-07T02:51:41.362Z,1.05
2023-03-07T02:54:10.354Z,1.19
2023-03-07T02:56:38.957Z,1.26
2023-03-07T02:59:07.562Z,1.44
2023-03-07T03:01:38.551Z,1.50
2023-03-07T03:04:06.880Z,1.46
2023-03-07T03:06:35.316Z,1.50
2023-03-07T03:09:04.241Z,1.56
2023-03-07T03:11:34.047Z,1.54
2023-03-07T03:14:06.682Z,1.62
2023-03-07T03:16:36.560Z,1.47
2023-03-07T03:19:05.042Z,1.52
2023-03-07T03:21:33.950Z,1.61
2023-03-07T03:24:06.894Z,1.36
2023-03-07T03:26:36.644Z,1.30
2023-03-07T03:29:06.667Z,1.14
2023-03-07T03:31:37.297Z,1.40
2023-03-07T03:34:07.313Z,1.45
2023-03-07T03:36:35.888Z,1.47
2023-03-07T03:39:11.012Z,1.54
2023-03-07T03:41:45.934Z,1.51
2023-03-07T03:44:15.134Z,1.39
2023-03-07T03:46:45.059Z,1.63
2023-03-07T03:49:14.403Z,1.35
2023-03-07T03:51:43.848Z,1.30
2023-03-07T03:54:12.341Z,1.41
2023-03-07T03:56:40.742Z,1.31
2023-03-07T03:59:09.702Z,1.29
2023-03-07T04:01:38.064Z,1.23
2023-03-07T04:04:08.639Z,1.19
2023-03-07T04:06:38.513Z,0.78
2023-03-07T04:09:06.971Z,1.06
2023-03-07T04:11:38.089Z,1.09
2023-03-07T04:14:06.596Z,1.45
2023-03-07T04:16:35.271Z,1.39
2023-03-07T04:19:03.775Z,1.33
2023-03-07T04:21:33.868Z,1.25
2023-03-07T04:24:02.504Z,1.31
2023-03-07T04:26:34.046Z,1.46
2023-03-07T04:29:02.685Z,1.10
2023-03-07T04:31:34.078Z,1.26
2023-03-07T04:34:04.884Z,0.98
2023-03-07T04:36:35.027Z,1.15
2023-03-07T04:39:03.454Z,1.35
2023-03-07T04:41:33.050Z,1.40
2023-03-07T04:44:06.613Z,1.14
2023-03-07T04:46:35.015Z,0.79
2023-03-07T04:49:03.506Z,0.93
2023-03-07T04:51:32.083Z,0.69
2023-03-07T04:54:02.571Z,0.68
2023-03-07T04:56:31.257Z,0.81
2023-03-07T04:59:02.132Z,0.81
2023-03-07T05:01:30.618Z,0.66
2023-03-07T05:03:59.929Z,0.42
2023-03-07T05:06:29.516Z,0.59
2023-03-07T05:08:58.443Z,0.32
2023-03-07T05:11:28.202Z,0.38
2023-03-07T05:13:56.987Z,0.37
2023-03-07T05:16:25.457Z,0.39
2023-03-07T05:18:53.968Z,0.44
2023-03-07T05:21:22.541Z,0.25
2023-03-07T05:23:51.491Z,0.21
2023-03-07T05:26:20.505Z,-0.31
2023-03-07T05:28:50.848Z,0.14
2023-03-07T05:31:20.093Z,0.13
2023-03-07T05:33:48.559Z,-0.01
2023-03-07T05:36:17.609Z,0.38
2023-03-07T05:38:46.099Z,0.38
2023-03-07T05:41:14.478Z,0.48
2023-03-07T05:43:46.039Z,0.60
2023-03-07T05:46:15.993Z,0.63
2023-03-07T05:48:44.625Z,0.49
2023-03-07T05:51:13.240Z,0.48
2023-03-07T05:53:42.210Z,-0.01
2023-03-07T05:56:11.120Z,-0.49
2023-03-07T05:58:39.705Z,-0.30
2023-03-07T06:01:09.093Z,-0.24
2023-03-07T06:03:39.084Z,-0.19
2023-03-07T06:06:57.821Z,0.15
2023-03-07T06:09:26.266Z,-0.08
2023-03-07T06:11:56.622Z,-0.37
2023-03-07T06:14:25.780Z,-0.30
2023-03-07T06:16:54.188Z,-0.12
2023-03-07T06:19:24.173Z,-0.22
2023-03-07T06:21:53.899Z,-0.16
2023-03-07T06:24:22.320Z,-0.33
2023-03-07T06:26:51.069Z,-0.25
2023-03-07T06:29:22.320Z,-0.35
2023-03-07T06:31:51.248Z,-0.32
2023-03-07T06:34:19.947Z,-0.31
2023-03-07T06:36:50.698Z,-0.66
2023-03-07T06:39:21.595Z,-0.87
2023-03-07T06:41:53.477Z,-1.51
2023-03-07T06:44:21.984Z,-0.80
2023-03-07T06:46:50.585Z,-1.01
2023-03-07T06:49:22.500Z,-0.85
2023-03-07T06:51:52.923Z,-0.91
2023-03-07T06:54:21.871Z,-1.22
2023-03-07T06:56:51.639Z,-1.86
2023-03-07T06:59:23.947Z,-0.96
2023-03-07T07:01:52.593Z,-0.98
2023-03-07T07:04:22.557Z,-1.25
2023-03-07T07:06:53.380Z,-1.46
2023-03-07T07:09:21.919Z,-2.10
2023-03-07T07:11:50.810Z,-1.14
2023-03-07T07:14:19.539Z,-1.18
2023-03-07T07:16:48.179Z,-1.18
2023-03-07T07:19:16.787Z,-1.41
2023-03-07T07:21:45.320Z,-1.31
2023-03-07T07:24:15.814Z,-1.11
2023-03-07T07:26:44.543Z,-1.11
2023-03-07T07:29:13.131Z,-1.03
2023-03-07T07:31:42.146Z,-0.92
2023-03-07T07:34:10.763Z,-0.95
2023-03-07T07:36:39.313Z,-1.17
2023-03-07T07:39:10.571Z,-1.03
2023-03-07T07:41:44.349Z,-1.09
2023-03-07T07:44:13.409Z,-0.58
2023-03-07T07:46:54.306Z,-0.96
2023-03-07T07:49:24.753Z,-1.15
2023-03-07T07:51:54.984Z,-0.77
2023-03-07T07:54:25.618Z,-0.87
2023-03-07T07:56:57.537Z,-0.63
2023-03-07T07:59:31.760Z,-0.52
2023-03-07T08:02:00.288Z,-0.57
2023-03-07T08:04:29.322Z,-0.54
2023-03-07T08:06:57.793Z,-0.48
2023-03-07T08:09:27.278Z,-0.77
2023-03-07T08:11:57.012Z,-0.34
2023-03-07T08:14:25.596Z,-0.41
2023-03-07T08:16:54.501Z,-0.45
2023-03-07T08:19:22.850Z,0.00
2023-03-07T08:21:51.415Z,-0.01
2023-03-07T08:24:21.798Z,-0.07
2023-03-07T08:26:51.696Z,-0.15
2023-03-07T08:29:21.970Z,-0.47
2023-03-07T08:31:51.925Z,-0.53
2023-03-07T08:34:20.372Z,-0.83
2023-03-07T08:36:49.058Z,-0.31
2023-03-07T08:39:17.616Z,-0.45
2023-03-07T08:41:46.072Z,0.04
2023-03-07T08:44:14.631Z,0.41
2023-03-07T08:46:44.417Z,0.64
2023-03-07T08:49:13.334Z,0.43
2023-03-07T08:51:41.992Z,0.69
2023-03-07T08:54:10.531Z,0.79
2023-03-07T08:56:39.221Z,0.68
2023-03-07T08:59:07.727Z,0.49
2023-03-07T09:01:36.171Z,0.51
2023-03-07T09:04:06.345Z,0.17
2023-03-07T09:06:34.945Z,0.41
2023-03-07T09:09:03.817Z,0.26
2023-03-07T09:11:32.223Z,-0.51
2023-03-07T09:14:00.590Z,0.26
2023-03-07T09:16:28.976Z,0.44
2023-03-07T09:18:57.540Z,0.49
2023-03-07T09:21:27.271Z,0.31
2023-03-07T09:23:55.728Z,0.17
2023-03-07T09:26:24.176Z,0.42
2023-03-07T09:28:52.664Z,0.18
2023-03-07T09:31:21.349Z,0.66
2023-03-07T09:33:49.800Z,0.61
2023-03-07T09:36:19.677Z,0.62
2023-03-07T09:38:49.615Z,0.35
2023-03-07T09:41:49.905Z,0.60
2023-03-07T09:44:34.268Z,0.66
2023-03-07T09:48:10.525Z,0.63
2023-03-07T09:50:49.373Z,0.12
2023-03-07T09:53:25.623Z,0.21
2023-03-07T09:56:09.683Z,0.32
2023-03-07T09:58:45.406Z,0.44
2023-03-07T10:01:17.067Z,0.41
2023-03-07T10:03:55.556Z,0.23
2023-03-07T10:06:31.505Z,0.31
2023-03-07T10:09:01.769Z,0.17
2023-03-07T10:11:54.424Z,0.18
2023-03-07T10:14:48.824Z,0.30
2023-03-07T10:17:30.968Z,-0.01
2023-03-07T10:20:09.141Z,0.60
2023-03-07T10:22:46.370Z,0.93
2023-03-07T10:25:27.432Z,1.17
2023-03-07T10:28:10.212Z,1.45
2023-03-07T10:30:39.048Z,1.82
2023-03-07T10:33:17.264Z,1.78
2023-03-07T10:35:51.253Z,1.70
2023-03-07T10:38:29.680Z,1.64
2023-03-07T10:41:03.462Z,2.07
2023-03-07T10:43:35.456Z,2.04
2023-03-07T10:46:24.589Z,2.30
2023-03-07T10:48:56.445Z,2.26
2023-03-07T10:51:51.522Z,1.97
2023-03-07T10:54:23.510Z,1.54
2023-03-07T10:57:09.709Z,1.62
2023-03-07T10:59:43.581Z,1.35
2023-03-07T11:02:35.969Z,1.47
2023-03-07T11:05:19.621Z,1.18
2023-03-07T11:07:48.079Z,1.17
2023-03-07T11:10:37.269Z,1.10
2023-03-07T11:13:15.209Z,0.77
2023-03-07T11:15:45.567Z,1.18
2023-03-07T11:18:29.982Z,1.08
2023-03-07T11:21:00.277Z,0.98
2023-03-07T11:23:31.608Z,1.22
2023-03-07T11:26:17.263Z,0.86
2023-03-07T11:28:45.838Z,1.28
2023-03-07T11:31:28.577Z,1.42
2023-03-07T11:34:06.632Z,1.28
2023-03-07T11:36:37.838Z,1.13
2023-03-07T11:39:17.724Z,1.07
2023-03-07T11:41:49.271Z,1.38
2023-03-07T11:44:33.694Z,1.96
2023-03-07T11:47:34.682Z,2.21
2023-03-07T11:50:17.773Z,2.29
2023-03-07T11:53:31.291Z,2.06
2023-03-07T11:56:24.948Z,1.70
2023-03-07T11:59:40.542Z,1.71
2023-03-07T12:02:38.563Z,1.10
2023-03-07T12:05:37.689Z,1.45
2023-03-07T12:08:37.201Z,1.30
2023-03-07T12:11:23.502Z,1.58
2023-03-07T12:14:01.918Z,0.89
2023-03-07T12:16:43.364Z,0.62
2023-03-07T12:19:44.236Z,0.40
2023-03-07T12:22:28.990Z,0.17
2023-03-07T12:25:23.507Z,0.76
2023-03-07T12:28:12.095Z,1.15
2023-03-07T12:30:56.034Z,1.11
2023-03-07T12:33:38.688Z,1.10
2023-03-07T12:36:18.507Z,1.36
2023-03-07T12:38:53.990Z,2.10
2023-03-07T12:41:40.348Z,1.99
2023-03-07T12:44:17.476Z,1.82
2023-03-07T12:46:52.411Z,1.81
2023-03-07T12:49:35.695Z,1.37
2023-03-07T12:52:17.631Z,1.28
2023-03-07T12:54:54.607Z,1.17
2023-03-07T12:57:29.815Z,0.90
2023-03-07T13:00:05.733Z,1.21
2023-03-07T13:02:43.015Z,1.44
2023-03-07T13:05:21.402Z,1.47
2023-03-07T13:07:52.207Z,1.53
2023-03-07T13:10:23.413Z,1.04
2023-03-07T13:12:53.065Z,0.86
2023-03-07T13:16:05.121Z,0.78
2023-03-07T13:18:34.391Z,0.97
2023-03-07T13:21:30.851Z,1.14
2023-03-07T13:24:36.745Z,1.79
2023-03-07T13:27:15.300Z,1.72
2023-03-07T13:30:18.210Z,2.05
2023-03-07T13:32:58.734Z,2.48
2023-03-07T13:35:57.966Z,1.53
2023-03-07T13:38:35.850Z,1.33
2023-03-07T13:41:06.774Z,1.33
2023-03-07T13:44:02.080Z,1.06
2023-03-07T13:46:48.778Z,1.01
2023-03-07T13:49:45.515Z,0.32
2023-03-07T13:52:40.201Z,0.61
2023-03-07T13:55:39.577Z,0.71
2023-03-07T13:58:29.824Z,0.44
2023-03-07T14:01:02.751Z,0.35
2023-03-07T14:03:36.916Z,0.01
2023-03-07T14:06:12.473Z,-0.32
2023-03-07T14:08:41.525Z,-0.29
2023-03-07T14:11:23.165Z,-0.45
2023-03-07T14:14:25.090Z,-0.31
2023-03-07T14:17:15.147Z,-0.23
2023-03-07T14:20:09.165Z,-0.35
2023-03-07T14:22:54.107Z,-0.17
2023-03-07T14:25:26.056Z,-0.11
2023-03-07T14:27:58.534Z,-0.37
2023-03-07T14:30:32.002Z,-0.40
2023-03-07T14:33:02.182Z,-0.41
2023-03-07T14:35:45.369Z,-0.03
2023-03-07T14:38:21.305Z,-0.48
2023-03-07T14:41:36.015Z,-0.37
2023-03-07T14:44:35.674Z,-0.48
2023-03-07T14:47:20.893Z,-0.27
2023-03-07T14:50:01.576Z,-0.29
2023-03-07T14:52:31.903Z,-0.16
2023-03-07T14:55:03.956Z,-0.27
2023-03-07T14:57:35.984Z,-0.49
2023-03-07T15:00:17.170Z,-0.79
2023-03-07T15:03:04.317Z,-0.84
2023-03-07T15:05:37.078Z,-0.46
2023-03-07T15:08:18.849Z,-0.72
2023-03-07T15:10:51.868Z,-1.03
2023-03-07T15:13:29.935Z,-0.48
2023-03-07T15:16:04.098Z,-0.67
2023-03-07T15:18:39.199Z,-0.20
2023-03-07T15:21:09.441Z,-0.27
2023-03-07T15:23:37.871Z,-0.10
2023-03-07T15:26:10.894Z,-0.62
2023-03-07T15:28:41.671Z,-0.70
2023-03-07T15:31:11.361Z,-0.92
2023-03-07T15:33:41.475Z,-0.84
2023-03-07T15:36:28.323Z,-1.35
2023-03-07T15:39:33.159Z,-1.02
2023-03-07T15:42:05.161Z,-1.04
2023-03-07T15:44:34.318Z,-0.69
2023-03-07T15:47:15.134Z,-0.67
2023-03-07T15:49:47.327Z,-0.79
2023-03-07T15:52:33.544Z,-0.33
2023-03-07T15:55:05.779Z,-0.41
2023-03-07T15:57:39.188Z,-0.68
2023-03-07T16:00:17.484Z,-0.81
2023-03-07T16:02:48.289Z,-0.97
2023-03-07T16:05:43.724Z,-1.30
2023-03-07T16:08:15.650Z,-0.94
2023-03-07T16:10:52.193Z,-0.74
2023-03-07T16:13:24.341Z,-1.00
2023-03-07T16:16:06.105Z,-0.62
2023-03-07T16:18:35.498Z,-0.79
2023-03-07T16:21:06.355Z,-0.54
2023-03-07T16:23:35.359Z,-0.51
2023-03-07T16:26:06.110Z,-0.58
2023-03-07T16:28:37.878Z,-1.02
2023-03-07T16:31:13.208Z,-0.83
2023-03-07T16:33:41.714Z,-0.73
2023-03-07T16:36:13.979Z,-0.66
2023-03-07T16:38:43.155Z,-0.57
2023-03-07T16:41:19.314Z,-0.56
2023-03-07T16:43:52.843Z,-0.52
2023-03-07T16:46:22.520Z,-0.33
2023-03-07T16:48:51.126Z,-0.24
2023-03-07T16:51:23.580Z,-0.22
2023-03-07T16:53:52.570Z,-0.20
2023-03-07T16:56:26.663Z,-0.90
2023-03-07T16:58:55.441Z,-0.58
2023-03-07T17:01:24.022Z,-0.78
2023-03-07T17:03:52.670Z,-0.57
2023-03-07T17:06:33.597Z,-0.73
2023-03-07T17:09:09.598Z,-0.72
2023-03-07T17:11:39.710Z,-0.79
2023-03-07T17:14:12.531Z,-0.68
2023-03-07T17:16:45.136Z,-0.53
2023-03-07T17:19:26.076Z,-0.67
2023-03-07T17:21:56.332Z,-0.50
2023-03-07T17:24:25.224Z,-0.67
2023-03-07T17:26:54.799Z,-0.61
2023-03-07T17:29:30.073Z,-0.69
2023-03-07T17:31:58.669Z,-0.82
2023-03-07T17:34:30.629Z,-0.79
2023-03-07T17:37:01.415Z,-0.76
2023-03-07T17:39:34.376Z,-0.69
2023-03-07T17:42:03.575Z,-0.56
2023-03-07T17:44:32.834Z,-0.87
2023-03-07T17:47:01.631Z,-0.79
2023-03-07T17:49:35.555Z,-0.95
2023-03-07T17:52:08.173Z,-0.88
2023-03-07T17:54:36.657Z,-0.72
2023-03-07T17:57:05.740Z,-0.74
2023-03-07T17:59:34.731Z,-0.68
2023-03-07T18:02:03.304Z,-0.83
2023-03-07T18:04:31.857Z,-0.82
2023-03-07T18:07:00.856Z,-1.01
2023-03-07T18:09:30.612Z,-0.83
2023-03-07T18:11:59.053Z,-0.66
2023-03-07T18:14:28.306Z,-0.98
2023-03-07T18:16:57.810Z,-0.55
2023-03-07T18:19:27.389Z,-0.90
2023-03-07T18:21:56.442Z,-0.64
2023-03-07T18:24:29.979Z,-0.69
2023-03-07T18:27:00.549Z,-0.77
2023-03-07T18:29:30.757Z,-0.99
2023-03-07T18:31:59.262Z,-1.23
2023-03-07T18:34:27.950Z,-1.01
2023-03-07T18:36:56.629Z,-1.30
2023-03-07T18:39:27.310Z,-1.38
2023-03-07T18:41:55.758Z,-1.01
2023-03-07T18:44:26.047Z,-0.90
2023-03-07T18:46:54.993Z,-1.01
2023-03-07T18:49:23.381Z,-1.20
2023-03-07T18:51:51.752Z,-1.26
2023-03-07T18:54:20.121Z,-1.14
2023-03-07T18:56:48.713Z,-1.35
2023-03-07T18:59:18.426Z,-1.62
2023-03-07T19:01:50.183Z,-1.35
2023-03-07T19:04:19.588Z,-1.54
2023-03-07T19:06:48.611Z,-1.73
2023-03-07T19:09:19.230Z,-1.68
2023-03-07T19:11:48.456Z,-1.87
2023-03-07T19:14:16.893Z,-1.82
2023-03-07T19:16:45.674Z,-1.79
2023-03-07T19:19:15.611Z,-1.77
2023-03-07T19:21:44.105Z,-2.03
2023-03-07T19:24:13.434Z,-1.65
2023-03-07T19:26:43.308Z,-1.98
2023-03-07T19:29:13.120Z,-1.82
2023-03-07T19:31:43.769Z,-2.16
2023-03-07T19:34:12.739Z,-2.12
2023-03-07T19:36:43.157Z,-2.08
2023-03-07T19:39:15.216Z,-2.06
2023-03-07T19:41:47.811Z,-2.09
2023-03-07T19:44:17.223Z,-2.07
2023-03-07T19:46:47.287Z,-2.31
2023-03-07T19:49:17.213Z,-2.26
2023-03-07T19:51:47.062Z,-2.07
2023-03-07T19:54:16.460Z,-2.18
2023-03-07T19:56:45.654Z,-2.14
2023-03-07T19:59:14.817Z,-2.38
2023-03-07T20:01:43.703Z,-2.25
2023-03-07T20:04:13.362Z,-2.10
2023-03-07T20:06:43.302Z,-2.24
2023-03-07T20:09:14.250Z,-2.19
2023-03-07T20:11:43.866Z,-2.25
2023-03-07T20:14:13.364Z,-1.96
2023-03-07T20:16:42.027Z,-2.14
2023-03-07T20:19:11.750Z,-2.34
2023-03-07T20:21:40.381Z,-1.88
2023-03-07T20:24:09.665Z,-1.77
2023-03-07T20:26:40.765Z,-1.86
2023-03-07T20:29:11.643Z,-1.98
2023-03-07T20:31:41.113Z,-2.04
2023-03-07T20:34:09.914Z,-2.18
2023-03-07T20:36:39.542Z,-2.56
2023-03-07T20:39:14.356Z,-2.39
2023-03-07T20:41:45.268Z,-2.75
2023-03-07T20:44:16.202Z,-2.50
2023-03-07T20:46:44.766Z,-2.60
2023-03-07T20:49:14.545Z,-2.93
2023-03-07T20:51:44.167Z,-2.77
2023-03-07T20:54:15.498Z,-2.95
2023-03-07T20:56:47.364Z,-3.13
2023-03-07T20:59:17.676Z,-3.24
2023-03-07T21:01:46.470Z,-2.94
2023-03-07T21:04:17.792Z,-3.00
2023-03-07T21:06:47.912Z,-3.01
2023-03-07T21:09:18.849Z,-3.00
2023-03-07T21:11:50.119Z,-3.08
2023-03-07T21:14:20.834Z,-3.05
2023-03-07T21:16:49.468Z,-3.06
2023-03-07T21:19:17.832Z,-3.29
2023-03-07T21:21:46.269Z,-3.24
2023-03-07T21:24:15.550Z,-3.23
2023-03-07T21:26:43.946Z,-3.25
2023-03-07T21:29:14.181Z,-3.28
2023-03-07T21:31:42.694Z,-3.37
2023-03-07T21:34:14.707Z,-3.56
2023-03-07T21:36:43.250Z,-3.69
2023-03-07T21:39:12.717Z,-3.65
2023-03-07T21:41:41.367Z,-3.47
2023-03-07T21:44:10.641Z,-3.42
2023-03-07T21:46:40.312Z,-3.57
2023-03-07T21:49:08.973Z,-3.57
2023-03-07T21:51:37.351Z,-3.49
2023-03-07T21:54:06.188Z,-3.54
2023-03-07T21:56:34.647Z,-3.53
2023-03-07T21:59:03.038Z,-3.52
2023-03-07T22:01:31.471Z,-3.54
2023-03-07T22:04:01.311Z,-3.55
2023-03-07T22:06:30.314Z,-3.74
2023-03-07T22:09:00.551Z,-3.52
2023-03-07T22:11:29.181Z,-3.59
2023-03-07T22:13:57.440Z,-3.61
2023-03-07T22:16:25.790Z,-3.64
2023-03-07T22:18:56.115Z,-3.66
2023-03-07T22:21:26.908Z,-3.64
2023-03-07T22:23:57.898Z,-3.74
2023-03-07T22:26:26.837Z,-3.66
2023-03-07T22:28:55.905Z,-3.55
2023-03-07T22:31:25.100Z,-3.42
2023-03-07T22:33:53.695Z,-3.54
2023-03-07T22:36:24.751Z,-3.62
2023-03-07T22:38:57.108Z,-3.57
2023-03-07T22:41:29.048Z,-3.46
2023-03-07T22:43:57.371Z,-3.46
2023-03-07T22:46:26.225Z,-3.43
2023-03-07T22:48:55.044Z,-3.32
2023-03-07T22:51:25.518Z,-3.37
2023-03-07T22:53:55.434Z,-3.15
2023-03-07T22:56:26.362Z,-3.47
2023-03-07T22:58:55.121Z,-3.30
2023-03-07T23:01:26.559Z,-3.51
2023-03-07T23:03:57.024Z,-3.37
2023-03-07T23:06:28.697Z,-3.37
2023-03-07T23:08:59.681Z,-3.79
2023-03-07T23:11:30.642Z,-3.39
2023-03-07T23:13:59.660Z,-3.39
2023-03-07T23:16:30.797Z,-3.36
2023-03-07T23:19:00.711Z,-3.39
2023-03-07T23:21:32.202Z,-3.48
2023-03-07T23:24:03.122Z,-3.57
2023-03-07T23:26:34.587Z,-3.66
2023-03-07T23:29:03.402Z,-3.72
2023-03-07T23:31:34.050Z,-3.97
2023-03-07T23:34:05.781Z,-3.95
2023-03-07T23:36:35.068Z,-3.99
2023-03-07T23:39:05.384Z,-3.91
2023-03-07T23:41:33.944Z,-3.70
2023-03-07T23:44:03.532Z,-3.69
2023-03-07T23:46:33.310Z,-3.69
2023-03-07T23:49:02.774Z,-3.74
2023-03-07T23:51:31.792Z,-3.93
2023-03-07T23:54:00.118Z,-3.80
2023-03-07T23:56:29.896Z,-3.79
2023-03-07T23:58:58.262Z,-3.80
